Chisholm Hibbing Airport Hibbing US
ICAO: KHIB
IATA: HIB
Category: Large
Scheduled Services: Yes

Elevation: 1354 ft
TransAlt. 18000 ft.

Airport Communications:
DULUTH APP/DEP:125.45
ASOS:126.425
DULUTH CLNC DEL:127.4
PRINCETON RDO:122.6
CTAF/UNICOM:123

KHIB Zoom In..

Runways:

(A) RW 04 length 3075 ft width 75 ft
---- / hdg 47

(B) RW 13 length 6758 ft width 150 ft
ILS 110.50 / hdg 130

(C) RW 22 length 3075 ft width 75 ft
---- / hdg 227

(D) RW 31 length 6758 ft width 150 ft
ILS 109.50 / hdg 310

Location; KHIB
Day. 24 / Time. 01.53 Zulu
* Altimeter: 30.11
* Temperature: -16° c. -3.2°f.
* Wind from: 000° Speed 00 kn.
Dewpoint: -18° c.
Visibility: 10 Statute Miles.
Clouds: Clear (automated report).

KHIB 240153Z AUTO 00000KT 10SM CLR M16/M18 A3011 RMK AO2 SLP237 T11611183


Wind - Calm.

YouTube Music Video
 
jpsmedia.com for Web Design  worldairports.se 2018   terms of use